sensor_id;sensor_type;location;lat;lon;timestamp;temperature;humidity
24452;DHT22;13350;50.984;5.822;2023-07-29T00:02:25;18.90;99.90
24452;DHT22;13350;50.984;5.822;2023-07-29T00:04:55;18.90;99.90
24452;DHT22;13350;50.984;5.822;2023-07-29T00:07:22;18.90;99.90
24452;DHT22;13350;50.984;5.822;2023-07-29T00:09:49;18.90;99.90
24452;DHT22;13350;50.984;5.822;2023-07-29T00:12:17;19.00;99.90
24452;DHT22;13350;50.984;5.822;2023-07-29T00:14:45;19.10;99.90
24452;DHT22;13350;50.984;5.822;2023-07-29T00:17:12;19.20;99.90
24452;DHT22;13350;50.984;5.822;2023-07-29T00:19:39;19.20;99.90
24452;DHT22;13350;50.984;5.822;2023-07-29T00:22:06;19.30;99.90
24452;DHT22;13350;50.984;5.822;2023-07-29T00:24:34;19.20;99.90
24452;DHT22;13350;50.984;5.822;2023-07-29T00:27:01;19.20;99.90
24452;DHT22;13350;50.984;5.822;2023-07-29T00:29:28;19.20;99.90
24452;DHT22;13350;50.984;5.822;2023-07-29T00:31:56;19.10;99.90
24452;DHT22;13350;50.984;5.822;2023-07-29T00:34:23;19.10;99.90
24452;DHT22;13350;50.984;5.822;2023-07-29T00:36:50;19.10;99.90
24452;DHT22;13350;50.984;5.822;2023-07-29T00:39:18;19.10;99.90
24452;DHT22;13350;50.984;5.822;2023-07-29T00:41:45;19.10;99.90
24452;DHT22;13350;50.984;5.822;2023-07-29T00:44:12;19.10;99.90
24452;DHT22;13350;50.984;5.822;2023-07-29T00:46:39;19.20;99.90
24452;DHT22;13350;50.984;5.822;2023-07-29T00:49:08;19.30;99.90
24452;DHT22;13350;50.984;5.822;2023-07-29T00:51:36;19.20;99.90
24452;DHT22;13350;50.984;5.822;2023-07-29T00:54:03;19.10;99.90
24452;DHT22;13350;50.984;5.822;2023-07-29T00:56:30;19.00;99.90
24452;DHT22;13350;50.984;5.822;2023-07-29T00:58:57;19.00;99.90
24452;DHT22;13350;50.984;5.822;2023-07-29T01:01:27;19.00;99.90
24452;DHT22;13350;50.984;5.822;2023-07-29T01:03:54;19.00;99.90
24452;DHT22;13350;50.984;5.822;2023-07-29T01:06:23;19.10;99.90
24452;DHT22;13350;50.984;5.822;2023-07-29T01:08:55;19.10;99.90
24452;DHT22;13350;50.984;5.822;2023-07-29T01:11:27;19.10;99.90
24452;DHT22;13350;50.984;5.822;2023-07-29T01:13:58;19.10;99.90
24452;DHT22;13350;50.984;5.822;2023-07-29T01:16:28;19.20;99.90
24452;DHT22;13350;50.984;5.822;2023-07-29T01:18:57;19.20;99.90
24452;DHT22;13350;50.984;5.822;2023-07-29T01:21:28;19.10;99.90
24452;DHT22;13350;50.984;5.822;2023-07-29T01:23:59;19.10;99.90
24452;DHT22;13350;50.984;5.822;2023-07-29T01:26:26;19.10;99.90
24452;DHT22;13350;50.984;5.822;2023-07-29T01:28:54;19.10;99.90
24452;DHT22;13350;50.984;5.822;2023-07-29T01:31:23;19.00;99.90
24452;DHT22;13350;50.984;5.822;2023-07-29T01:33:53;19.00;99.90
24452;DHT22;13350;50.984;5.822;2023-07-29T01:36:23;18.90;99.90
24452;DHT22;13350;50.984;5.822;2023-07-29T01:38:53;18.90;99.90
24452;DHT22;13350;50.984;5.822;2023-07-29T01:41:23;19.00;99.90
24452;DHT22;13350;50.984;5.822;2023-07-29T01:43:50;18.90;99.90
24452;DHT22;13350;50.984;5.822;2023-07-29T01:46:19;18.90;99.90
24452;DHT22;13350;50.984;5.822;2023-07-29T01:48:46;18.80;99.90
24452;DHT22;13350;50.984;5.822;2023-07-29T01:51:14;18.80;99.90
24452;DHT22;13350;50.984;5.822;2023-07-29T01:53:41;18.70;99.90
24452;DHT22;13350;50.984;5.822;2023-07-29T01:56:08;18.70;99.90
24452;DHT22;13350;50.984;5.822;2023-07-29T01:58:36;18.70;99.90
24452;DHT22;13350;50.984;5.822;2023-07-29T02:01:03;18.70;99.90
24452;DHT22;13350;50.984;5.822;2023-07-29T02:03:31;18.70;99.90
24452;DHT22;13350;50.984;5.822;2023-07-29T02:05:58;18.70;99.90
24452;DHT22;13350;50.984;5.822;2023-07-29T02:08:25;18.60;99.90
24452;DHT22;13350;50.984;5.822;2023-07-29T02:10:52;18.50;99.90
24452;DHT22;13350;50.984;5.822;2023-07-29T02:13:19;18.30;99.90
24452;DHT22;13350;50.984;5.822;2023-07-29T02:15:48;18.20;99.90
24452;DHT22;13350;50.984;5.822;2023-07-29T02:18:15;18.10;99.90
24452;DHT22;13350;50.984;5.822;2023-07-29T02:20:42;18.10;99.90
24452;DHT22;13350;50.984;5.822;2023-07-29T02:23:14;18.10;99.90
24452;DHT22;13350;50.984;5.822;2023-07-29T02:25:41;18.10;99.90
24452;DHT22;13350;50.984;5.822;2023-07-29T02:28:08;18.10;99.90
24452;DHT22;13350;50.984;5.822;2023-07-29T02:30:36;18.00;99.90
24452;DHT22;13350;50.984;5.822;2023-07-29T02:33:04;18.00;99.90
24452;DHT22;13350;50.984;5.822;2023-07-29T02:35:31;18.00;99.90
24452;DHT22;13350;50.984;5.822;2023-07-29T02:37:59;18.00;99.90
24452;DHT22;13350;50.984;5.822;2023-07-29T02:40:26;18.00;99.90
24452;DHT22;13350;50.984;5.822;2023-07-29T02:42:54;18.00;99.90
24452;DHT22;13350;50.984;5.822;2023-07-29T02:45:21;17.90;99.90
24452;DHT22;13350;50.984;5.822;2023-07-29T02:47:49;17.90;99.90
24452;DHT22;13350;50.984;5.822;2023-07-29T02:50:17;18.00;99.90
24452;DHT22;13350;50.984;5.822;2023-07-29T02:52:44;18.00;99.90
24452;DHT22;13350;50.984;5.822;2023-07-29T02:55:11;18.00;99.90
24452;DHT22;13350;50.984;5.822;2023-07-29T02:57:38;17.90;99.90
24452;DHT22;13350;50.984;5.822;2023-07-29T03:00:06;17.90;99.90
24452;DHT22;13350;50.984;5.822;2023-07-29T03:02:33;18.00;99.90
24452;DHT22;13350;50.984;5.822;2023-07-29T03:05:01;17.90;99.90
24452;DHT22;13350;50.984;5.822;2023-07-29T03:07:30;17.90;99.90
24452;DHT22;13350;50.984;5.822;2023-07-29T03:09:57;17.90;99.90
24452;DHT22;13350;50.984;5.822;2023-07-29T03:12:24;17.80;99.90
24452;DHT22;13350;50.984;5.822;2023-07-29T03:14:52;17.90;99.90
24452;DHT22;13350;50.984;5.822;2023-07-29T03:17:19;17.90;99.90
24452;DHT22;13350;50.984;5.822;2023-07-29T03:19:46;17.90;99.90
24452;DHT22;13350;50.984;5.822;2023-07-29T03:22:13;17.80;99.90
24452;DHT22;13350;50.984;5.822;2023-07-29T03:24:42;17.80;99.90
24452;DHT22;13350;50.984;5.822;2023-07-29T03:27:09;17.80;99.90
24452;DHT22;13350;50.984;5.822;2023-07-29T03:29:36;17.70;99.90
24452;DHT22;13350;50.984;5.822;2023-07-29T03:32:03;17.70;99.90
24452;DHT22;13350;50.984;5.822;2023-07-29T03:34:30;17.70;99.90
24452;DHT22;13350;50.984;5.822;2023-07-29T03:36:58;17.70;99.90
24452;DHT22;13350;50.984;5.822;2023-07-29T03:39:25;17.70;99.90
24452;DHT22;13350;50.984;5.822;2023-07-29T03:41:54;17.60;99.90
24452;DHT22;13350;50.984;5.822;2023-07-29T03:44:21;17.60;99.90
24452;DHT22;13350;50.984;5.822;2023-07-29T03:46:48;17.60;99.90
24452;DHT22;13350;50.984;5.822;2023-07-29T03:49:16;17.60;99.90
24452;DHT22;13350;50.984;5.822;2023-07-29T03:51:43;17.50;99.90
24452;DHT22;13350;50.984;5.822;2023-07-29T03:54:10;17.60;99.90
24452;DHT22;13350;50.984;5.822;2023-07-29T03:56:37;17.60;99.90
24452;DHT22;13350;50.984;5.822;2023-07-29T03:59:05;17.50;99.90
24452;DHT22;13350;50.984;5.822;2023-07-29T04:01:33;17.50;99.90
24452;DHT22;13350;50.984;5.822;2023-07-29T04:04:00;17.50;99.90
24452;DHT22;13350;50.984;5.822;2023-07-29T04:06:27;17.40;99.90
24452;DHT22;13350;50.984;5.822;2023-07-29T04:08:54;17.50;99.90
24452;DHT22;13350;50.984;5.822;2023-07-29T04:11:22;17.40;99.90
24452;DHT22;13350;50.984;5.822;2023-07-29T04:13:49;17.40;99.90
24452;DHT22;13350;50.984;5.822;2023-07-29T04:16:18;17.30;99.90
24452;DHT22;13350;50.984;5.822;2023-07-29T04:18:45;17.20;99.90
24452;DHT22;13350;50.984;5.822;2023-07-29T04:21:12;17.20;99.90
24452;DHT22;13350;50.984;5.822;2023-07-29T04:23:39;17.10;99.90
24452;DHT22;13350;50.984;5.822;2023-07-29T04:26:06;17.10;99.90
24452;DHT22;13350;50.984;5.822;2023-07-29T04:28:33;17.00;99.90
24452;DHT22;13350;50.984;5.822;2023-07-29T04:31:00;17.10;99.90
24452;DHT22;13350;50.984;5.822;2023-07-29T04:33:30;17.10;99.90
24452;DHT22;13350;50.984;5.822;2023-07-29T04:35:57;17.10;99.90
24452;DHT22;13350;50.984;5.822;2023-07-29T04:38:30;17.00;99.90
24452;DHT22;13350;50.984;5.822;2023-07-29T04:40:58;17.00;99.90
24452;DHT22;13350;50.984;5.822;2023-07-29T04:43:26;17.00;99.90
24452;DHT22;13350;50.984;5.822;2023-07-29T04:45:54;17.00;99.90
24452;DHT22;13350;50.984;5.822;2023-07-29T04:48:21;17.10;99.90
24452;DHT22;13350;50.984;5.822;2023-07-29T04:50:49;17.10;99.90
24452;DHT22;13350;50.984;5.822;2023-07-29T04:53:16;17.10;99.90
24452;DHT22;13350;50.984;5.822;2023-07-29T04:55:43;17.10;99.90
24452;DHT22;13350;50.984;5.822;2023-07-29T04:58:10;17.10;99.90
24452;DHT22;13350;50.984;5.822;2023-07-29T05:00:37;17.10;99.90
24452;DHT22;13350;50.984;5.822;2023-07-29T05:03:05;17.10;99.90
24452;DHT22;13350;50.984;5.822;2023-07-29T05:05:32;17.10;99.90
24452;DHT22;13350;50.984;5.822;2023-07-29T05:08:00;17.10;99.90
24452;DHT22;13350;50.984;5.822;2023-07-29T05:10:27;17.10;99.90
24452;DHT22;13350;50.984;5.822;2023-07-29T05:12:54;17.10;99.90
24452;DHT22;13350;50.984;5.822;2023-07-29T05:15:22;17.20;99.90
24452;DHT22;13350;50.984;5.822;2023-07-29T05:17:49;17.20;99.90
24452;DHT22;13350;50.984;5.822;2023-07-29T05:20:16;17.20;99.90
24452;DHT22;13350;50.984;5.822;2023-07-29T05:22:43;17.20;99.90
24452;DHT22;13350;50.984;5.822;2023-07-29T05:25:11;17.30;99.90
24452;DHT22;13350;50.984;5.822;2023-07-29T05:27:38;17.30;99.90
24452;DHT22;13350;50.984;5.822;2023-07-29T05:30:06;17.20;99.90
24452;DHT22;13350;50.984;5.822;2023-07-29T05:32:33;17.30;99.90
24452;DHT22;13350;50.984;5.822;2023-07-29T05:35:00;17.20;99.90
24452;DHT22;13350;50.984;5.822;2023-07-29T05:37:27;17.20;99.90
24452;DHT22;13350;50.984;5.822;2023-07-29T05:39:54;17.20;99.90
24452;DHT22;13350;50.984;5.822;2023-07-29T05:42:22;17.20;99.90
24452;DHT22;13350;50.984;5.822;2023-07-29T05:44:49;17.30;99.90
24452;DHT22;13350;50.984;5.822;2023-07-29T05:47:16;17.30;99.90
24452;DHT22;13350;50.984;5.822;2023-07-29T05:49:43;17.30;99.90
24452;DHT22;13350;50.984;5.822;2023-07-29T05:52:10;17.40;99.90
24452;DHT22;13350;50.984;5.822;2023-07-29T05:54:37;17.40;99.90
24452;DHT22;13350;50.984;5.822;2023-07-29T05:57:05;17.50;99.90
24452;DHT22;13350;50.984;5.822;2023-07-29T05:59:34;17.60;99.90
24452;DHT22;13350;50.984;5.822;2023-07-29T06:02:01;17.70;99.90
24452;DHT22;13350;50.984;5.822;2023-07-29T06:04:28;17.70;99.90
24452;DHT22;13350;50.984;5.822;2023-07-29T06:06:55;17.70;99.90
24452;DHT22;13350;50.984;5.822;2023-07-29T06:09:22;17.80;99.90
24452;DHT22;13350;50.984;5.822;2023-07-29T06:11:50;17.80;99.90
24452;DHT22;13350;50.984;5.822;2023-07-29T06:14:17;17.80;99.90
24452;DHT22;13350;50.984;5.822;2023-07-29T06:16:46;18.00;99.90
24452;DHT22;13350;50.984;5.822;2023-07-29T06:19:13;18.00;99.90
24452;DHT22;13350;50.984;5.822;2023-07-29T06:21:40;18.20;99.90
24452;DHT22;13350;50.984;5.822;2023-07-29T06:24:07;18.30;99.90
24452;DHT22;13350;50.984;5.822;2023-07-29T06:26:34;18.60;99.90
24452;DHT22;13350;50.984;5.822;2023-07-29T06:29:01;18.60;99.90
24452;DHT22;13350;50.984;5.822;2023-07-29T06:31:28;18.80;99.90
24452;DHT22;13350;50.984;5.822;2023-07-29T06:33:57;18.60;99.90
24452;DHT22;13350;50.984;5.822;2023-07-29T06:36:24;18.50;99.90
24452;DHT22;13350;50.984;5.822;2023-07-29T06:38:51;18.30;99.90
24452;DHT22;13350;50.984;5.822;2023-07-29T06:41:18;18.20;99.90
24452;DHT22;13350;50.984;5.822;2023-07-29T06:43:45;18.20;99.90
24452;DHT22;13350;50.984;5.822;2023-07-29T06:46:12;18.20;99.90
24452;DHT22;13350;50.984;5.822;2023-07-29T06:48:39;18.20;99.90
24452;DHT22;13350;50.984;5.822;2023-07-29T06:51:08;18.10;99.90
24452;DHT22;13350;50.984;5.822;2023-07-29T06:53:35;18.20;99.90
24452;DHT22;13350;50.984;5.822;2023-07-29T06:56:02;18.30;99.90
24452;DHT22;13350;50.984;5.822;2023-07-29T06:58:30;18.90;99.90
24452;DHT22;13350;50.984;5.822;2023-07-29T07:00:57;20.10;99.90
24452;DHT22;13350;50.984;5.822;2023-07-29T07:03:24;20.90;99.90
24452;DHT22;13350;50.984;5.822;2023-07-29T07:05:51;21.20;99.90
24452;DHT22;13350;50.984;5.822;2023-07-29T07:08:20;21.60;99.90
24452;DHT22;13350;50.984;5.822;2023-07-29T07:10:47;21.90;99.90
24452;DHT22;13350;50.984;5.822;2023-07-29T07:13:14;22.10;99.90
24452;DHT22;13350;50.984;5.822;2023-07-29T07:15:41;22.50;99.90
24452;DHT22;13350;50.984;5.822;2023-07-29T07:18:08;22.30;99.90
24452;DHT22;13350;50.984;5.822;2023-07-29T07:20:35;22.60;99.90
24452;DHT22;13350;50.984;5.822;2023-07-29T07:23:03;21.70;99.90
24452;DHT22;13350;50.984;5.822;2023-07-29T07:25:32;21.50;99.90
24452;DHT22;13350;50.984;5.822;2023-07-29T07:27:59;21.30;99.90
24452;DHT22;13350;50.984;5.822;2023-07-29T07:30:26;21.60;99.90
24452;DHT22;13350;50.984;5.822;2023-07-29T07:32:53;22.20;99.90
24452;DHT22;13350;50.984;5.822;2023-07-29T07:35:21;21.90;99.90
24452;DHT22;13350;50.984;5.822;2023-07-29T07:37:48;21.30;99.90
24452;DHT22;13350;50.984;5.822;2023-07-29T07:40:15;21.10;99.90
24452;DHT22;13350;50.984;5.822;2023-07-29T07:42:43;21.20;99.90
24452;DHT22;13350;50.984;5.822;2023-07-29T07:45:10;21.10;99.90
24452;DHT22;13350;50.984;5.822;2023-07-29T07:47:37;21.00;99.90
24452;DHT22;13350;50.984;5.822;2023-07-29T07:50:05;20.40;99.90
24452;DHT22;13350;50.984;5.822;2023-07-29T07:52:32;20.30;99.90
24452;DHT22;13350;50.984;5.822;2023-07-29T07:54:59;21.00;99.90
24452;DHT22;13350;50.984;5.822;2023-07-29T07:57:26;21.60;99.90
24452;DHT22;13350;50.984;5.822;2023-07-29T07:59:55;21.20;99.90
24452;DHT22;13350;50.984;5.822;2023-07-29T08:02:22;21.00;99.90
24452;DHT22;13350;50.984;5.822;2023-07-29T08:04:49;21.00;99.90
24452;DHT22;13350;50.984;5.822;2023-07-29T08:07:16;20.80;99.90
24452;DHT22;13350;50.984;5.822;2023-07-29T08:09:43;21.00;99.90
24452;DHT22;13350;50.984;5.822;2023-07-29T08:12:10;21.00;99.90
24452;DHT22;13350;50.984;5.822;2023-07-29T08:14:38;21.00;99.90
24452;DHT22;13350;50.984;5.822;2023-07-29T08:17:06;21.40;99.90
24452;DHT22;13350;50.984;5.822;2023-07-29T08:19:33;21.20;99.90
24452;DHT22;13350;50.984;5.822;2023-07-29T08:22:02;21.00;99.90
24452;DHT22;13350;50.984;5.822;2023-07-29T08:24:29;20.70;99.90
24452;DHT22;13350;50.984;5.822;2023-07-29T08:26:56;20.50;99.90
24452;DHT22;13350;50.984;5.822;2023-07-29T08:29:23;20.30;99.90
24452;DHT22;13350;50.984;5.822;2023-07-29T08:31:50;20.30;99.90
24452;DHT22;13350;50.984;5.822;2023-07-29T08:34:19;20.30;99.90
24452;DHT22;13350;50.984;5.822;2023-07-29T08:36:46;20.40;99.90
24452;DHT22;13350;50.984;5.822;2023-07-29T08:39:13;20.20;99.90
24452;DHT22;13350;50.984;5.822;2023-07-29T08:41:41;20.10;99.90
24452;DHT22;13350;50.984;5.822;2023-07-29T08:44:11;20.00;99.90
24452;DHT22;13350;50.984;5.822;2023-07-29T08:46:39;20.20;99.90
24452;DHT22;13350;50.984;5.822;2023-07-29T08:49:06;20.50;99.90
24452;DHT22;13350;50.984;5.822;2023-07-29T08:51:35;20.60;99.90
24452;DHT22;13350;50.984;5.822;2023-07-29T08:54:03;21.10;99.90
24452;DHT22;13350;50.984;5.822;2023-07-29T08:56:30;21.10;99.90
24452;DHT22;13350;50.984;5.822;2023-07-29T08:58:57;21.30;99.90
24452;DHT22;13350;50.984;5.822;2023-07-29T09:01:26;21.90;99.90
24452;DHT22;13350;50.984;5.822;2023-07-29T09:03:53;22.20;99.90
24452;DHT22;13350;50.984;5.822;2023-07-29T09:06:20;22.10;99.90
24452;DHT22;13350;50.984;5.822;2023-07-29T09:08:49;22.30;99.90
24452;DHT22;13350;50.984;5.822;2023-07-29T09:11:17;22.30;99.90
24452;DHT22;13350;50.984;5.822;2023-07-29T09:13:44;22.10;99.90
24452;DHT22;13350;50.984;5.822;2023-07-29T09:16:12;22.60;99.90
24452;DHT22;13350;50.984;5.822;2023-07-29T09:18:42;23.40;99.90
24452;DHT22;13350;50.984;5.822;2023-07-29T09:21:09;23.00;99.90
24452;DHT22;13350;50.984;5.822;2023-07-29T09:23:39;23.10;99.90
24452;DHT22;13350;50.984;5.822;2023-07-29T09:26:08;23.00;99.90
24452;DHT22;13350;50.984;5.822;2023-07-29T09:28:36;23.40;99.90
24452;DHT22;13350;50.984;5.822;2023-07-29T09:31:03;25.00;99.90
24452;DHT22;13350;50.984;5.822;2023-07-29T09:33:33;26.00;99.90
24452;DHT22;13350;50.984;5.822;2023-07-29T09:36:01;25.80;99.90
24452;DHT22;13350;50.984;5.822;2023-07-29T09:38:28;26.20;99.90
24452;DHT22;13350;50.984;5.822;2023-07-29T09:40:55;25.40;99.90
24452;DHT22;13350;50.984;5.822;2023-07-29T09:43:28;24.30;99.90
24452;DHT22;13350;50.984;5.822;2023-07-29T09:45:56;24.70;99.90
24452;DHT22;13350;50.984;5.822;2023-07-29T09:48:26;24.00;99.90
24452;DHT22;13350;50.984;5.822;2023-07-29T09:50:54;24.00;99.90
24452;DHT22;13350;50.984;5.822;2023-07-29T09:53:21;24.50;99.90
24452;DHT22;13350;50.984;5.822;2023-07-29T09:55:48;24.80;99.90
24452;DHT22;13350;50.984;5.822;2023-07-29T09:58:18;25.60;99.90
24452;DHT22;13350;50.984;5.822;2023-07-29T10:00:47;25.70;99.90
24452;DHT22;13350;50.984;5.822;2023-07-29T10:03:14;25.30;99.90
24452;DHT22;13350;50.984;5.822;2023-07-29T10:05:41;25.00;99.90
24452;DHT22;13350;50.984;5.822;2023-07-29T10:08:08;23.90;99.90
24452;DHT22;13350;50.984;5.822;2023-07-29T10:10:36;23.60;99.90
24452;DHT22;13350;50.984;5.822;2023-07-29T10:13:04;23.70;99.90
24452;DHT22;13350;50.984;5.822;2023-07-29T10:15:31;23.40;99.90
24452;DHT22;13350;50.984;5.822;2023-07-29T10:18:00;23.20;99.90
24452;DHT22;13350;50.984;5.822;2023-07-29T10:20:28;22.70;99.90
24452;DHT22;13350;50.984;5.822;2023-07-29T10:22:58;22.30;99.90
24452;DHT22;13350;50.984;5.822;2023-07-29T10:25:29;22.10;99.90
24452;DHT22;13350;50.984;5.822;2023-07-29T10:28:00;22.20;99.90
24452;DHT22;13350;50.984;5.822;2023-07-29T10:30:31;22.50;99.90
24452;DHT22;13350;50.984;5.822;2023-07-29T10:33:01;22.80;99.90
24452;DHT22;13350;50.984;5.822;2023-07-29T10:35:29;24.40;99.90
24452;DHT22;13350;50.984;5.822;2023-07-29T10:37:56;25.30;99.90
24452;DHT22;13350;50.984;5.822;2023-07-29T10:40:23;24.90;99.90
24452;DHT22;13350;50.984;5.822;2023-07-29T10:43:00;24.40;99.90
24452;DHT22;13350;50.984;5.822;2023-07-29T10:45:35;23.70;99.90
24452;DHT22;13350;50.984;5.822;2023-07-29T10:48:06;23.40;99.90
24452;DHT22;13350;50.984;5.822;2023-07-29T10:50:34;23.20;99.90
24452;DHT22;13350;50.984;5.822;2023-07-29T10:53:01;23.20;99.90
24452;DHT22;13350;50.984;5.822;2023-07-29T10:55:29;23.20;99.90
24452;DHT22;13350;50.984;5.822;2023-07-29T10:58:06;23.40;99.90
24452;DHT22;13350;50.984;5.822;2023-07-29T11:00:33;24.50;99.90
24452;DHT22;13350;50.984;5.822;2023-07-29T11:03:01;24.40;99.90
24452;DHT22;13350;50.984;5.822;2023-07-29T11:05:43;24.90;99.90
24452;DHT22;13350;50.984;5.822;2023-07-29T11:08:21;24.70;99.90
24452;DHT22;13350;50.984;5.822;2023-07-29T11:13:33;24.90;99.90
24452;DHT22;13350;50.984;5.822;2023-07-29T11:16:01;24.80;99.90
24452;DHT22;13350;50.984;5.822;2023-07-29T11:18:28;26.70;99.90
24452;DHT22;13350;50.984;5.822;2023-07-29T11:20:56;27.30;99.90
24452;DHT22;13350;50.984;5.822;2023-07-29T11:23:27;26.40;99.90
24452;DHT22;13350;50.984;5.822;2023-07-29T11:25:55;25.70;99.90
24452;DHT22;13350;50.984;5.822;2023-07-29T11:28:22;25.00;99.90
24452;DHT22;13350;50.984;5.822;2023-07-29T11:30:49;24.80;99.90
24452;DHT22;13350;50.984;5.822;2023-07-29T11:33:17;23.90;99.90
24452;DHT22;13350;50.984;5.822;2023-07-29T11:35:44;23.50;99.90
24452;DHT22;13350;50.984;5.822;2023-07-29T11:38:15;24.10;99.90
24452;DHT22;13350;50.984;5.822;2023-07-29T11:40:43;24.50;99.90
24452;DHT22;13350;50.984;5.822;2023-07-29T11:43:17;24.50;99.90
24452;DHT22;13350;50.984;5.822;2023-07-29T11:45:44;24.50;99.90
24452;DHT22;13350;50.984;5.822;2023-07-29T11:48:11;24.60;99.90
24452;DHT22;13350;50.984;5.822;2023-07-29T11:50:39;24.00;99.90
24452;DHT22;13350;50.984;5.822;2023-07-29T11:53:06;23.80;99.90
24452;DHT22;13350;50.984;5.822;2023-07-29T11:55:34;23.50;99.90
24452;DHT22;13350;50.984;5.822;2023-07-29T11:58:02;23.00;99.90
24452;DHT22;13350;50.984;5.822;2023-07-29T12:00:29;22.40;99.90
24452;DHT22;13350;50.984;5.822;2023-07-29T12:02:56;22.30;99.90
24452;DHT22;13350;50.984;5.822;2023-07-29T12:05:23;22.10;99.90
24452;DHT22;13350;50.984;5.822;2023-07-29T12:07:51;21.60;99.90
24452;DHT22;13350;50.984;5.822;2023-07-29T12:10:19;21.50;99.90
24452;DHT22;13350;50.984;5.822;2023-07-29T12:12:49;21.40;99.90
24452;DHT22;13350;50.984;5.822;2023-07-29T12:15:25;21.10;99.90
24452;DHT22;13350;50.984;5.822;2023-07-29T12:17:53;20.90;99.90
24452;DHT22;13350;50.984;5.822;2023-07-29T12:20:22;20.70;99.90
24452;DHT22;13350;50.984;5.822;2023-07-29T12:22:52;20.50;99.90
24452;DHT22;13350;50.984;5.822;2023-07-29T12:25:20;20.20;99.90
24452;DHT22;13350;50.984;5.822;2023-07-29T12:27:48;20.00;99.90
24452;DHT22;13350;50.984;5.822;2023-07-29T12:30:15;19.90;99.90
24452;DHT22;13350;50.984;5.822;2023-07-29T12:32:44;19.80;99.90
24452;DHT22;13350;50.984;5.822;2023-07-29T12:35:11;19.60;99.90
24452;DHT22;13350;50.984;5.822;2023-07-29T12:37:38;19.40;99.90
24452;DHT22;13350;50.984;5.822;2023-07-29T12:40:09;19.20;99.90
24452;DHT22;13350;50.984;5.822;2023-07-29T12:42:36;19.00;99.90
24452;DHT22;13350;50.984;5.822;2023-07-29T12:45:06;19.00;99.90
24452;DHT22;13350;50.984;5.822;2023-07-29T12:47:33;18.90;99.90
24452;DHT22;13350;50.984;5.822;2023-07-29T12:50:00;18.90;99.90
24452;DHT22;13350;50.984;5.822;2023-07-29T12:52:27;18.80;99.90
24452;DHT22;13350;50.984;5.822;2023-07-29T12:54:54;18.70;99.90
24452;DHT22;13350;50.984;5.822;2023-07-29T12:57:22;18.60;99.90
24452;DHT22;13350;50.984;5.822;2023-07-29T12:59:49;18.40;99.90
24452;DHT22;13350;50.984;5.822;2023-07-29T13:02:17;18.20;99.90
24452;DHT22;13350;50.984;5.822;2023-07-29T13:04:45;18.00;99.90
24452;DHT22;13350;50.984;5.822;2023-07-29T13:07:12;18.10;99.90
24452;DHT22;13350;50.984;5.822;2023-07-29T13:09:39;18.00;99.90
24452;DHT22;13350;50.984;5.822;2023-07-29T13:12:06;18.00;99.90
24452;DHT22;13350;50.984;5.822;2023-07-29T13:14:33;18.00;99.90
24452;DHT22;13350;50.984;5.822;2023-07-29T13:17:01;18.20;99.90
24452;DHT22;13350;50.984;5.822;2023-07-29T13:19:29;18.70;99.90
24452;DHT22;13350;50.984;5.822;2023-07-29T13:21:56;19.70;99.90
24452;DHT22;13350;50.984;5.822;2023-07-29T13:24:24;20.50;99.90
24452;DHT22;13350;50.984;5.822;2023-07-29T13:26:51;21.40;99.90
24452;DHT22;13350;50.984;5.822;2023-07-29T13:29:18;22.70;99.90
24452;DHT22;13350;50.984;5.822;2023-07-29T13:31:45;23.20;99.90
24452;DHT22;13350;50.984;5.822;2023-07-29T13:34:12;23.70;99.90
24452;DHT22;13350;50.984;5.822;2023-07-29T13:36:41;24.40;99.90
24452;DHT22;13350;50.984;5.822;2023-07-29T13:39:08;23.70;99.90
24452;DHT22;13350;50.984;5.822;2023-07-29T13:41:35;23.10;99.90
24452;DHT22;13350;50.984;5.822;2023-07-29T13:44:02;22.40;99.90
24452;DHT22;13350;50.984;5.822;2023-07-29T13:46:29;22.00;99.90
24452;DHT22;13350;50.984;5.822;2023-07-29T13:48:57;21.80;99.90
24452;DHT22;13350;50.984;5.822;2023-07-29T13:51:24;21.70;99.90
24452;DHT22;13350;50.984;5.822;2023-07-29T13:53:52;21.50;99.90
24452;DHT22;13350;50.984;5.822;2023-07-29T13:56:19;21.30;99.90
24452;DHT22;13350;50.984;5.822;2023-07-29T13:58:46;21.00;99.90
24452;DHT22;13350;50.984;5.822;2023-07-29T14:01:13;20.90;99.90
24452;DHT22;13350;50.984;5.822;2023-07-29T14:03:40;21.10;99.90
24452;DHT22;13350;50.984;5.822;2023-07-29T14:06:08;21.40;99.90
24452;DHT22;13350;50.984;5.822;2023-07-29T14:08:35;21.40;99.90
24452;DHT22;13350;50.984;5.822;2023-07-29T14:11:03;21.10;99.90
24452;DHT22;13350;50.984;5.822;2023-07-29T14:13:30;20.90;99.90
24452;DHT22;13350;50.984;5.822;2023-07-29T14:15:59;20.80;99.90
24452;DHT22;13350;50.984;5.822;2023-07-29T14:18:26;20.70;99.90
24452;DHT22;13350;50.984;5.822;2023-07-29T14:20:53;20.60;99.90
24452;DHT22;13350;50.984;5.822;2023-07-29T14:23:20;20.30;99.90
24452;DHT22;13350;50.984;5.822;2023-07-29T14:25:47;20.20;99.90
24452;DHT22;13350;50.984;5.822;2023-07-29T14:28:16;20.00;99.90
24452;DHT22;13350;50.984;5.822;2023-07-29T14:30:43;19.80;99.90
24452;DHT22;13350;50.984;5.822;2023-07-29T14:33:10;19.70;99.90
24452;DHT22;13350;50.984;5.822;2023-07-29T14:35:37;20.20;99.90
24452;DHT22;13350;50.984;5.822;2023-07-29T14:38:04;20.90;99.90
24452;DHT22;13350;50.984;5.822;2023-07-29T14:40:31;22.00;99.90
24452;DHT22;13350;50.984;5.822;2023-07-29T14:42:58;22.50;99.90
24452;DHT22;13350;50.984;5.822;2023-07-29T14:45:26;23.50;99.90
24452;DHT22;13350;50.984;5.822;2023-07-29T14:47:53;23.90;99.90
24452;DHT22;13350;50.984;5.822;2023-07-29T14:50:20;24.60;99.90
24452;DHT22;13350;50.984;5.822;2023-07-29T14:52:47;25.00;99.90
24452;DHT22;13350;50.984;5.822;2023-07-29T14:55:15;25.10;99.90
24452;DHT22;13350;50.984;5.822;2023-07-29T14:57:42;24.80;99.90
24452;DHT22;13350;50.984;5.822;2023-07-29T15:00:09;24.70;99.90
24452;DHT22;13350;50.984;5.822;2023-07-29T15:02:40;25.00;99.90
24452;DHT22;13350;50.984;5.822;2023-07-29T15:05:07;24.00;99.90
24452;DHT22;13350;50.984;5.822;2023-07-29T15:07:34;23.30;99.90
24452;DHT22;13350;50.984;5.822;2023-07-29T15:10:02;22.70;99.90
24452;DHT22;13350;50.984;5.822;2023-07-29T15:12:29;22.70;99.90
24452;DHT22;13350;50.984;5.822;2023-07-29T15:14:56;22.50;99.90
24452;DHT22;13350;50.984;5.822;2023-07-29T15:17:23;22.50;99.90
24452;DHT22;13350;50.984;5.822;2023-07-29T15:19:51;22.60;99.90
24452;DHT22;13350;50.984;5.822;2023-07-29T15:22:18;23.10;99.90
24452;DHT22;13350;50.984;5.822;2023-07-29T15:24:45;24.10;99.90
24452;DHT22;13350;50.984;5.822;2023-07-29T15:27:12;24.30;99.90
24452;DHT22;13350;50.984;5.822;2023-07-29T15:29:39;24.00;99.90
24452;DHT22;13350;50.984;5.822;2023-07-29T15:32:07;23.70;99.90
24452;DHT22;13350;50.984;5.822;2023-07-29T15:34:34;23.30;99.90
24452;DHT22;13350;50.984;5.822;2023-07-29T15:37:03;23.30;99.90